createdAt,value
2023-02-15T00:00:04.540Z,13.800
2023-02-15T00:01:04.228Z,12.900
2023-02-15T00:02:03.874Z,13.400
2023-02-15T00:03:04.556Z,13.600
2023-02-15T00:04:04.384Z,13.700
2023-02-15T00:05:03.999Z,15.200
2023-02-15T00:06:04.665Z,13.700
2023-02-15T00:07:04.300Z,14.400
2023-02-15T00:08:03.955Z,13.300
2023-02-15T00:09:04.602Z,14.200
2023-02-15T00:10:04.592Z,15.300
2023-02-15T00:11:04.234Z,14.100
2023-02-15T00:12:03.876Z,15.100
2023-02-15T00:13:04.533Z,13.400
2023-02-15T00:14:04.178Z,14.400
2023-02-15T00:15:04.863Z,14.900
2023-02-15T00:16:04.647Z,14.600
2023-02-15T00:17:04.440Z,14.100
2023-02-15T00:18:04.104Z,14.400
2023-02-15T00:19:04.723Z,15.000
2023-02-15T00:20:04.449Z,14.400
2023-02-15T00:21:04.145Z,14.700
2023-02-15T00:22:04.759Z,13.600
2023-02-15T00:23:04.392Z,15.500
2023-02-15T00:24:04.032Z,14.900
2023-02-15T00:25:04.653Z,15.000
2023-02-15T00:26:04.328Z,14.900
2023-02-15T00:27:03.970Z,15.400
2023-02-15T00:28:04.567Z,15.600
2023-02-15T00:29:04.257Z,14.400
2023-02-15T00:30:03.894Z,14.700
2023-02-15T00:31:04.995Z,15.400
2023-02-15T00:32:04.109Z,16.100
2023-02-15T00:33:04.723Z,15.800
2023-02-15T00:34:04.325Z,16.300
2023-02-15T00:35:03.981Z,15.700
2023-02-15T00:36:04.726Z,16.000
2023-02-15T00:37:04.328Z,16.400
2023-02-15T00:38:03.966Z,15.800
2023-02-15T00:39:04.616Z,15.900
2023-02-15T00:40:04.281Z,15.200
2023-02-15T00:41:03.968Z,16.100
2023-02-15T00:42:04.777Z,15.900
2023-02-15T00:43:04.429Z,15.600
2023-02-15T00:44:04.037Z,15.100
2023-02-15T00:45:04.663Z,14.700
2023-02-15T00:46:04.538Z,15.000
2023-02-15T00:47:04.780Z,15.300
2023-02-15T00:48:04.486Z,15.300
2023-02-15T00:50:03.892Z,16.000
2023-02-15T00:51:04.616Z,15.200
2023-02-15T00:52:04.352Z,15.800
2023-02-15T00:53:03.981Z,14.700
2023-02-15T00:54:04.673Z,16.800
2023-02-15T00:55:04.347Z,15.500
2023-02-15T00:56:04.196Z,16.000
2023-02-15T00:57:03.971Z,15.100
2023-02-15T00:58:04.532Z,14.900
2023-02-15T00:59:04.219Z,14.900
2023-02-15T01:00:04.048Z,14.600
2023-02-15T01:01:04.856Z,15.200
2023-02-15T01:02:04.630Z,14.800
2023-02-15T01:03:04.280Z,14.800
2023-02-15T01:04:04.054Z,15.200
2023-02-15T01:05:04.805Z,15.700
2023-02-15T01:06:04.482Z,15.000
2023-02-15T01:07:04.164Z,14.400
2023-02-15T01:08:04.768Z,14.200
2023-02-15T01:09:04.457Z,15.900
2023-02-15T01:10:04.137Z,14.700
2023-02-15T01:11:04.780Z,15.200
2023-02-15T01:12:04.448Z,15.300
2023-02-15T01:13:04.097Z,15.000
2023-02-15T01:14:04.968Z,14.400
2023-02-15T01:15:04.720Z,14.900
2023-02-15T01:16:05.142Z,14.700
2023-02-15T01:17:04.088Z,15.400
2023-02-15T01:18:04.772Z,14.800
2023-02-15T01:19:04.451Z,14.800
2023-02-15T01:20:04.092Z,14.800
2023-02-15T01:21:04.816Z,15.400
2023-02-15T01:22:04.489Z,14.900
2023-02-15T01:23:04.130Z,15.000
2023-02-15T01:24:04.775Z,15.200
2023-02-15T01:25:04.392Z,15.600
2023-02-15T01:26:04.168Z,15.500
2023-02-15T01:28:04.517Z,15.400
2023-02-15T01:29:04.175Z,15.700
2023-02-15T01:30:04.081Z,16.300
2023-02-15T01:31:05.317Z,15.100
2023-02-15T01:33:04.155Z,14.300
2023-02-15T01:34:04.784Z,15.500
2023-02-15T01:35:04.645Z,15.800
2023-02-15T01:36:04.422Z,15.400
2023-02-15T01:37:04.085Z,15.200
2023-02-15T01:38:04.725Z,15.700
2023-02-15T01:39:04.410Z,15.200
2023-02-15T01:40:04.114Z,15.600
2023-02-15T01:41:04.732Z,14.500
2023-02-15T01:42:04.361Z,14.500
2023-02-15T01:43:03.952Z,15.600
2023-02-15T01:44:04.666Z,15.200
2023-02-15T01:45:04.337Z,15.000
2023-02-15T01:46:04.295Z,13.900
2023-02-15T01:48:04.841Z,15.600
2023-02-15T01:49:04.448Z,15.900
2023-02-15T01:50:04.095Z,15.100
2023-02-15T01:51:04.856Z,16.000
2023-02-15T01:52:04.684Z,15.300
2023-02-15T01:53:04.300Z,15.200
2023-02-15T01:54:03.997Z,16.300
2023-02-15T01:55:06.379Z,16.500
2023-02-15T01:56:04.572Z,16.300
2023-02-15T01:57:04.190Z,15.200
2023-02-15T01:58:04.816Z,15.500
2023-02-15T01:59:04.457Z,15.600
2023-02-15T02:00:04.146Z,14.800
2023-02-15T02:01:04.804Z,15.400
2023-02-15T02:02:04.884Z,15.800
2023-02-15T02:03:04.789Z,14.500
2023-02-15T02:04:04.965Z,14.100
2023-02-15T02:05:04.097Z,16.100
2023-02-15T02:06:04.767Z,14.400
2023-02-15T02:07:04.402Z,14.400
2023-02-15T02:08:04.171Z,14.400
2023-02-15T02:09:04.825Z,14.700
2023-02-15T02:10:04.677Z,14.800
2023-02-15T02:11:04.401Z,14.400
2023-02-15T02:12:04.317Z,14.300
2023-02-15T02:13:03.986Z,14.900
2023-02-15T02:14:04.670Z,14.200
2023-02-15T02:15:04.552Z,14.700
2023-02-15T02:16:04.598Z,15.600
2023-02-15T02:17:04.335Z,15.200
2023-02-15T02:18:04.097Z,15.400
2023-02-15T02:19:04.852Z,14.800
2023-02-15T02:20:04.525Z,14.600
2023-02-15T02:21:04.075Z,13.900
2023-02-15T02:22:04.693Z,14.500
2023-02-15T02:23:04.352Z,14.700
2023-02-15T02:24:03.947Z,14.400
2023-02-15T02:25:04.509Z,13.400
2023-02-15T02:26:04.419Z,13.700
2023-02-15T02:27:04.100Z,14.100
2023-02-15T02:28:04.764Z,13.200
2023-02-15T02:29:04.653Z,13.600
2023-02-15T02:30:04.410Z,14.000
2023-02-15T02:31:04.546Z,15.000
2023-02-15T02:32:04.887Z,14.200
2023-02-15T02:33:04.573Z,14.400
2023-02-15T02:34:04.302Z,15.200
2023-02-15T02:35:04.000Z,14.100
2023-02-15T02:36:04.711Z,14.500
2023-02-15T02:37:04.408Z,13.700
2023-02-15T02:38:04.081Z,14.200
2023-02-15T02:39:04.672Z,14.000
2023-02-15T02:40:04.368Z,13.900
2023-02-15T02:41:03.981Z,14.800
2023-02-15T02:42:04.922Z,14.700
2023-02-15T02:43:04.714Z,14.600
2023-02-15T02:44:04.636Z,14.800
2023-02-15T02:45:04.356Z,15.000
2023-02-15T02:46:04.334Z,14.200
2023-02-15T02:47:04.503Z,14.500
2023-02-15T02:48:04.198Z,14.900
2023-02-15T02:49:03.804Z,14.300
2023-02-15T02:50:04.508Z,14.900
2023-02-15T02:51:04.147Z,15.200
2023-02-15T02:52:04.797Z,14.400
2023-02-15T02:53:04.432Z,15.000
2023-02-15T02:54:04.040Z,14.700
2023-02-15T02:55:03.949Z,15.700
2023-02-15T02:56:04.637Z,15.400
2023-02-15T02:57:04.304Z,15.700
2023-02-15T02:58:03.951Z,14.600
2023-02-15T02:59:04.703Z,15.500
2023-02-15T03:00:04.625Z,15.100
2023-02-15T03:01:04.321Z,15.100
2023-02-15T03:02:04.281Z,14.700
2023-02-15T03:03:04.166Z,16.100
2023-02-15T03:04:03.982Z,14.400
2023-02-15T03:05:04.990Z,15.300
2023-02-15T03:06:04.681Z,14.600
2023-02-15T03:07:04.344Z,14.500
2023-02-15T03:08:04.049Z,14.800
2023-02-15T03:09:04.681Z,15.200
2023-02-15T03:10:04.314Z,14.600
2023-02-15T03:11:03.948Z,15.400
2023-02-15T03:12:04.664Z,16.600
2023-02-15T03:13:04.364Z,15.800
2023-02-15T03:14:04.069Z,15.800
2023-02-15T03:15:04.799Z,14.800
2023-02-15T03:16:04.891Z,15.500
2023-02-15T03:17:04.780Z,14.700
2023-02-15T03:18:04.396Z,14.000
2023-02-15T03:19:04.055Z,13.600
2023-02-15T03:20:04.752Z,14.900
2023-02-15T03:21:04.499Z,15.500
2023-02-15T03:22:04.263Z,14.200
2023-02-15T03:23:03.954Z,14.300
2023-02-15T03:24:04.620Z,13.800
2023-02-15T03:25:04.327Z,13.700
2023-02-15T03:26:04.143Z,14.700
2023-02-15T03:27:03.859Z,14.900
2023-02-15T03:28:04.461Z,14.700
2023-02-15T03:29:04.309Z,15.700
2023-02-15T03:30:04.126Z,15.500
2023-02-15T03:31:05.106Z,15.300
2023-02-15T03:32:04.645Z,15.200
2023-02-15T03:33:04.419Z,15.700
2023-02-15T03:34:04.253Z,15.300
2023-02-15T03:35:03.902Z,14.800
2023-02-15T03:36:04.550Z,15.100
2023-02-15T03:37:05.580Z,14.700
2023-02-15T03:38:03.936Z,15.600
2023-02-15T03:39:04.695Z,15.200
2023-02-15T03:40:04.357Z,15.000
2023-02-15T03:41:04.036Z,15.400
2023-02-15T03:42:04.720Z,14.600
2023-02-15T03:43:04.392Z,15.000
2023-02-15T03:44:04.124Z,15.800
2023-02-15T03:45:04.925Z,15.100
2023-02-15T03:46:04.631Z,15.100
2023-02-15T03:47:07.094Z,15.600
2023-02-15T03:48:03.958Z,15.200
2023-02-15T03:49:04.761Z,15.100
2023-02-15T03:50:04.411Z,15.400
2023-02-15T03:51:04.175Z,16.100
2023-02-15T03:52:04.829Z,15.600
2023-02-15T03:53:04.528Z,15.600
2023-02-15T03:54:04.228Z,15.900
2023-02-15T03:55:04.024Z,15.800
2023-02-15T03:56:04.833Z,15.500
2023-02-15T03:57:04.480Z,16.300
2023-02-15T03:58:04.133Z,15.500
2023-02-15T03:59:04.841Z,16.400
2023-02-15T04:00:04.658Z,15.800
2023-02-15T04:01:04.597Z,17.300
2023-02-15T04:02:04.585Z,16.200
2023-02-15T04:03:04.469Z,15.500
2023-02-15T04:04:04.195Z,15.200
2023-02-15T04:05:03.928Z,15.400
2023-02-15T04:06:04.676Z,16.300
2023-02-15T04:07:04.484Z,16.200
2023-02-15T04:08:04.241Z,16.400
2023-02-15T04:09:03.944Z,16.200
2023-02-15T04:10:04.629Z,15.800
2023-02-15T04:11:04.311Z,16.000
2023-02-15T04:12:04.193Z,15.900
2023-02-15T04:13:03.900Z,15.800
2023-02-15T04:14:04.678Z,16.300
2023-02-15T04:15:04.255Z,16.700
2023-02-15T04:16:05.191Z,16.800
2023-02-15T04:17:11.856Z,16.100
2023-02-15T04:18:04.086Z,17.800
2023-02-15T04:19:04.788Z,18.100
2023-02-15T04:20:04.671Z,18.100
2023-02-15T04:21:04.334Z,18.100
2023-02-15T04:22:04.109Z,17.100
2023-02-15T04:23:04.694Z,17.100
2023-02-15T04:24:04.407Z,18.500
2023-02-15T04:25:03.993Z,17.600
2023-02-15T04:26:04.657Z,18.300
2023-02-15T04:27:04.420Z,17.800
2023-02-15T04:28:04.163Z,17.100
2023-02-15T04:29:05.045Z,18.700
2023-02-15T04:30:04.996Z,18.900
2023-02-15T04:31:04.985Z,18.300
2023-02-15T04:32:05.192Z,18.300
2023-02-15T04:33:03.919Z,18.100
2023-02-15T04:34:04.616Z,17.000
2023-02-15T04:35:04.389Z,19.300
2023-02-15T04:36:04.069Z,17.800
2023-02-15T04:37:04.740Z,17.600
2023-02-15T04:38:04.385Z,17.000
2023-02-15T04:39:04.031Z,17.800
2023-02-15T04:40:04.676Z,17.400
2023-02-15T04:41:04.581Z,17.500
2023-02-15T04:42:04.269Z,17.400
2023-02-15T04:43:03.991Z,18.100
2023-02-15T04:44:04.970Z,18.500
2023-02-15T04:45:04.620Z,17.400
2023-02-15T04:46:04.825Z,18.600
2023-02-15T04:47:04.783Z,18.200
2023-02-15T04:48:04.467Z,18.300
2023-02-15T04:49:04.586Z,17.800
2023-02-15T04:50:04.291Z,19.800
2023-02-15T04:51:04.149Z,18.700
2023-02-15T04:52:04.785Z,18.600
2023-02-15T04:53:04.512Z,19.100
2023-02-15T04:54:04.291Z,19.700
2023-02-15T04:55:04.160Z,18.700
2023-02-15T04:56:04.942Z,19.900
2023-02-15T04:57:04.821Z,19.200
2023-02-15T04:58:04.701Z,18.700
2023-02-15T04:59:04.526Z,18.400
2023-02-15T05:00:04.545Z,19.000
2023-02-15T05:01:04.350Z,19.800
2023-02-15T05:02:04.153Z,20.300
2023-02-15T05:03:03.881Z,19.700
2023-02-15T05:04:04.609Z,20.200
2023-02-15T05:05:04.496Z,18.700
2023-02-15T05:06:04.315Z,18.800
2023-02-15T05:07:04.769Z,20.300
2023-02-15T05:08:04.512Z,18.800
2023-02-15T05:09:04.115Z,18.700
2023-02-15T05:10:04.802Z,19.300
2023-02-15T05:11:04.624Z,20.100
2023-02-15T05:12:04.240Z,19.100
2023-02-15T05:13:03.976Z,19.300
2023-02-15T05:14:04.689Z,18.800
2023-02-15T05:15:04.340Z,18.300
2023-02-15T05:16:04.109Z,18.600
2023-02-15T05:17:04.049Z,19.000
2023-02-15T05:18:04.696Z,19.200
2023-02-15T05:19:04.301Z,18.300
2023-02-15T05:20:03.898Z,18.800
2023-02-15T05:21:04.539Z,19.000
2023-02-15T05:22:04.218Z,18.900
2023-02-15T05:23:04.054Z,17.600
2023-02-15T05:24:04.729Z,18.400
2023-02-15T05:25:04.468Z,17.700
2023-02-15T05:26:04.348Z,18.500
2023-02-15T05:27:03.996Z,17.400
2023-02-15T05:28:05.281Z,17.000
2023-02-15T05:29:04.054Z,18.000
2023-02-15T05:30:05.105Z,18.100
2023-02-15T05:31:04.874Z,18.000
2023-02-15T05:32:05.630Z,19.000
2023-02-15T05:33:04.714Z,19.000
2023-02-15T05:34:04.398Z,18.500
2023-02-15T05:35:04.068Z,18.000
2023-02-15T05:36:04.943Z,18.500
2023-02-15T05:37:04.798Z,17.700
2023-02-15T05:38:04.404Z,18.500
2023-02-15T05:39:04.085Z,18.100
2023-02-15T05:40:04.685Z,18.500
2023-02-15T05:41:06.416Z,18.600
2023-02-15T05:42:03.988Z,18.100
2023-02-15T05:43:04.718Z,18.600
2023-02-15T05:44:04.431Z,18.100
2023-02-15T05:45:04.115Z,18.200
2023-02-15T05:46:04.453Z,19.100
2023-02-15T05:47:04.436Z,18.200
2023-02-15T05:48:04.034Z,18.600
2023-02-15T05:49:04.781Z,18.600
2023-02-15T05:50:04.407Z,19.000
2023-02-15T05:51:04.085Z,19.000
2023-02-15T05:52:04.729Z,18.600
2023-02-15T05:53:06.885Z,18.400
2023-02-15T05:54:04.470Z,18.700
2023-02-15T05:55:04.429Z,18.400
2023-02-15T05:56:04.320Z,17.800
2023-02-15T05:57:04.125Z,18.200
2023-02-15T05:58:04.813Z,19.300
2023-02-15T05:59:04.428Z,18.100
2023-02-15T06:00:04.073Z,18.500
2023-02-15T06:01:04.757Z,18.800
2023-02-15T06:02:04.429Z,19.600
2023-02-15T06:03:04.497Z,19.800
2023-02-15T06:04:04.281Z,19.600
2023-02-15T06:05:04.013Z,19.300
2023-02-15T06:06:04.739Z,19.800
2023-02-15T06:07:04.375Z,19.900
2023-02-15T06:08:05.870Z,18.300
2023-02-15T06:09:04.564Z,20.300
2023-02-15T06:10:04.284Z,19.700
2023-02-15T06:11:04.114Z,19.300
2023-02-15T06:12:04.852Z,19.600
2023-02-15T06:13:04.469Z,18.700
2023-02-15T06:14:04.128Z,20.100
2023-02-15T06:15:04.720Z,19.500
2023-02-15T06:16:05.027Z,19.700
2023-02-15T06:17:04.033Z,19.200
2023-02-15T06:18:04.715Z,19.100
2023-02-15T06:19:05.462Z,19.600
2023-02-15T06:20:04.270Z,19.900
2023-02-15T06:21:03.866Z,20.100
2023-02-15T06:22:04.516Z,19.600
2023-02-15T06:23:04.139Z,19.800
2023-02-15T06:24:04.752Z,20.200
2023-02-15T06:25:04.432Z,19.500
2023-02-15T06:26:04.366Z,19.800
2023-02-15T06:27:04.192Z,19.800
2023-02-15T06:28:04.921Z,19.300
2023-02-15T06:29:04.627Z,20.100
2023-02-15T06:30:04.473Z,19.600
2023-02-15T06:31:04.707Z,19.300
2023-02-15T06:32:04.848Z,21.100
2023-02-15T06:33:04.767Z,20.000
2023-02-15T06:34:04.475Z,21.200
2023-02-15T06:35:05.207Z,21.200
2023-02-15T06:36:04.215Z,19.900
2023-02-15T06:37:04.203Z,21.500
2023-02-15T06:38:04.132Z,19.500
2023-02-15T06:39:04.816Z,20.700
2023-02-15T06:40:04.499Z,20.900
2023-02-15T06:41:04.523Z,20.600
2023-02-15T06:42:04.219Z,20.000
2023-02-15T06:43:04.015Z,21.400
2023-02-15T06:44:04.671Z,20.900
2023-02-15T06:45:04.532Z,20.900
2023-02-15T06:46:04.781Z,21.700
2023-02-15T06:47:04.870Z,21.400
2023-02-15T06:48:04.713Z,22.700
2023-02-15T06:49:04.369Z,22.400
2023-02-15T06:50:04.112Z,22.500
2023-02-15T06:51:04.829Z,21.900
2023-02-15T06:52:04.521Z,22.000
2023-02-15T06:53:04.305Z,22.300
2023-02-15T06:54:04.254Z,21.300
2023-02-15T06:55:04.109Z,23.300
2023-02-15T06:56:04.813Z,22.800
2023-02-15T06:57:04.477Z,22.100
2023-02-15T06:58:06.898Z,23.100
2023-02-15T06:59:04.704Z,23.200
2023-02-15T07:00:04.401Z,22.600
2023-02-15T07:01:04.309Z,23.000
2023-02-15T07:02:04.301Z,23.200
2023-02-15T07:03:03.959Z,22.300
2023-02-15T07:04:04.480Z,22.100
2023-02-15T07:05:04.272Z,21.500
2023-02-15T07:06:04.451Z,23.300
2023-02-15T07:07:05.574Z,22.300
2023-02-15T07:08:04.358Z,23.400
2023-02-15T07:09:03.994Z,22.000
2023-02-15T07:10:04.576Z,22.000
2023-02-15T07:11:04.149Z,21.300
2023-02-15T07:12:04.824Z,21.000
2023-02-15T07:13:04.539Z,22.700
2023-02-15T07:14:04.225Z,21.100
2023-02-15T07:15:03.964Z,22.400
2023-02-15T07:16:04.942Z,21.800
2023-02-15T07:17:06.133Z,22.000
2023-02-15T07:19:06.739Z,22.500
2023-02-15T07:20:06.402Z,22.900
2023-02-15T07:21:06.124Z,22.900
2023-02-15T07:22:06.771Z,23.200
2023-02-15T07:23:06.446Z,23.800
2023-02-15T07:24:06.096Z,24.000
2023-02-15T07:25:06.811Z,23.800
2023-02-15T07:26:06.473Z,23.500
2023-02-15T07:27:06.209Z,22.800
2023-02-15T07:28:05.946Z,23.900
2023-02-15T07:29:06.709Z,23.600
2023-02-15T07:30:06.543Z,24.800
2023-02-15T07:31:06.526Z,23.600
2023-02-15T07:32:06.318Z,23.600
2023-02-15T07:33:06.272Z,22.400
2023-02-15T07:34:07.279Z,23.200
2023-02-15T07:35:05.952Z,23.700
2023-02-15T07:36:06.655Z,22.200
2023-02-15T07:37:08.225Z,23.600
2023-02-15T07:38:06.064Z,22.600
2023-02-15T07:39:06.651Z,23.900
2023-02-15T07:40:06.330Z,23.400
2023-02-15T07:41:05.899Z,23.300
2023-02-15T07:42:06.571Z,22.700
2023-02-15T07:43:08.420Z,23.400
2023-02-15T07:44:06.229Z,22.000
2023-02-15T07:45:05.873Z,24.100
2023-02-15T07:46:06.710Z,21.400
2023-02-15T07:47:06.837Z,22.900
2023-02-15T07:48:06.450Z,22.700
2023-02-15T07:49:06.208Z,23.100
2023-02-15T07:50:05.907Z,21.500
2023-02-15T07:51:06.521Z,23.200
2023-02-15T07:52:06.302Z,23.100
2023-02-15T07:53:05.920Z,22.300
2023-02-15T07:54:06.564Z,23.900
2023-02-15T07:55:06.244Z,22.300
2023-02-15T07:56:05.964Z,23.500
2023-02-15T07:57:07.739Z,24.100
2023-02-15T07:58:06.389Z,23.700
2023-02-15T07:59:06.212Z,23.200
2023-02-15T08:00:05.951Z,23.500
2023-02-15T08:01:06.576Z,22.100
2023-02-15T08:02:06.248Z,24.300
2023-02-15T08:03:06.089Z,23.700
2023-02-15T08:04:06.095Z,23.400
2023-02-15T08:06:06.488Z,24.100
2023-02-15T08:07:06.233Z,22.800
2023-02-15T08:08:05.879Z,25.300
2023-02-15T08:09:06.523Z,23.000
2023-02-15T08:10:06.219Z,24.500
2023-02-15T08:11:05.972Z,25.000
2023-02-15T08:12:06.852Z,22.700
2023-02-15T08:13:06.452Z,23.300
2023-02-15T08:14:06.114Z,23.300
2023-02-15T08:15:06.801Z,22.700
2023-02-15T08:16:06.641Z,22.900
2023-02-15T08:17:06.306Z,23.900
2023-02-15T08:18:05.989Z,24.200
2023-02-15T08:19:06.669Z,23.400
2023-02-15T08:20:06.397Z,24.100
2023-02-15T08:21:06.132Z,23.200
2023-02-15T08:22:06.810Z,23.900
2023-02-15T08:23:06.557Z,23.600
2023-02-15T08:24:06.249Z,22.900
2023-02-15T08:25:06.180Z,23.700
2023-02-15T08:26:05.966Z,23.300
2023-02-15T08:27:06.680Z,22.800
2023-02-15T08:28:06.387Z,24.000
2023-02-15T08:29:06.044Z,23.600
2023-02-15T08:30:06.785Z,23.600
2023-02-15T08:31:10.009Z,22.300
2023-02-15T08:32:06.172Z,23.100
2023-02-15T08:33:06.804Z,22.900
2023-02-15T08:34:06.523Z,24.900
2023-02-15T08:35:06.192Z,24.200
2023-02-15T08:36:06.825Z,22.400
2023-02-15T08:37:06.521Z,22.700
2023-02-15T08:38:06.139Z,22.000
2023-02-15T08:39:07.635Z,23.400
2023-02-15T08:40:06.254Z,23.400
2023-02-15T08:41:05.920Z,22.700
2023-02-15T08:42:06.790Z,22.000
2023-02-15T08:43:06.503Z,22.500
2023-02-15T08:44:06.214Z,22.200
2023-02-15T08:45:06.593Z,22.200
2023-02-15T08:46:06.403Z,23.100
2023-02-15T08:47:06.175Z,23.000
2023-02-15T08:48:05.992Z,23.000
2023-02-15T08:49:06.721Z,22.800
2023-02-15T08:50:06.417Z,23.500
2023-02-15T08:51:06.168Z,23.400
2023-02-15T08:52:06.749Z,22.300
2023-02-15T08:53:06.466Z,22.600
2023-02-15T08:54:06.206Z,21.900
2023-02-15T08:55:05.849Z,23.200
2023-02-15T08:56:06.525Z,22.000
2023-02-15T08:57:06.202Z,20.000
2023-02-15T08:58:05.828Z,22.900
2023-02-15T08:59:06.489Z,24.000
2023-02-15T09:00:06.143Z,23.900
2023-02-15T09:01:06.947Z,23.300
2023-02-15T09:02:06.960Z,23.200
2023-02-15T09:03:06.760Z,22.700
2023-02-15T09:04:06.488Z,22.700
2023-02-15T09:05:06.152Z,22.700
2023-02-15T09:06:06.896Z,22.000
2023-02-15T09:07:06.597Z,21.100
2023-02-15T09:08:06.331Z,22.000
2023-02-15T09:09:06.048Z,22.300
2023-02-15T09:10:06.638Z,22.300
2023-02-15T09:11:06.369Z,20.700
2023-02-15T09:12:13.901Z,21.600
2023-02-15T09:13:06.712Z,22.200
2023-02-15T09:14:06.410Z,22.500
2023-02-15T09:15:06.009Z,22.400
2023-02-15T09:16:07.126Z,23.200
2023-02-15T09:17:06.055Z,22.600
2023-02-15T09:18:06.790Z,21.600
2023-02-15T09:19:06.712Z,23.200
2023-02-15T09:20:06.518Z,21.900
2023-02-15T09:21:06.173Z,23.000
2023-02-15T09:22:06.848Z,21.600
2023-02-15T09:23:07.591Z,23.600
2023-02-15T09:25:07.118Z,22.600
2023-02-15T09:26:07.774Z,22.500
2023-02-15T09:27:07.422Z,21.300
2023-02-15T09:28:07.056Z,22.900
2023-02-15T09:29:07.656Z,22.300
2023-02-15T09:30:07.446Z,21.600
2023-02-15T09:31:07.559Z,22.500
2023-02-15T09:32:07.746Z,22.900
2023-02-15T09:33:07.548Z,22.300
2023-02-15T09:34:07.176Z,23.200
2023-02-15T09:35:08.922Z,22.400
2023-02-15T09:36:07.563Z,22.400
2023-02-15T09:37:07.307Z,22.500
2023-02-15T09:38:07.300Z,22.700
2023-02-15T09:39:07.048Z,22.000
2023-02-15T09:40:07.070Z,23.200
2023-02-15T09:41:07.738Z,21.600
2023-02-15T09:42:07.682Z,21.400
2023-02-15T09:43:07.459Z,22.400
2023-02-15T09:44:07.258Z,22.200
2023-02-15T09:45:07.755Z,21.200
2023-02-15T09:46:08.043Z,22.100
2023-02-15T09:47:07.828Z,22.400
2023-02-15T09:48:07.512Z,21.100
2023-02-15T09:49:07.152Z,21.700
2023-02-15T09:50:07.934Z,21.800
2023-02-15T09:52:06.899Z,20.400
2023-02-15T09:53:07.561Z,21.600
2023-02-15T09:54:07.228Z,21.600
2023-02-15T09:55:06.918Z,22.300
2023-02-15T09:56:07.554Z,21.500
2023-02-15T09:57:07.269Z,22.700
2023-02-15T09:58:06.904Z,21.000
2023-02-15T09:59:07.596Z,20.200
2023-02-15T10:00:08.331Z,21.100
2023-02-15T10:01:07.183Z,20.700
2023-02-15T10:02:06.876Z,20.800
2023-02-15T10:03:08.363Z,21.900
2023-02-15T10:04:07.194Z,22.900
2023-02-15T10:05:07.207Z,21.100
2023-02-15T10:06:06.866Z,21.800
2023-02-15T10:07:07.653Z,21.700
2023-02-15T10:08:07.521Z,21.400
2023-02-15T10:09:07.225Z,22.500
2023-02-15T10:10:07.041Z,21.900
2023-02-15T10:11:07.721Z,21.200
2023-02-15T10:12:07.519Z,21.100
2023-02-15T10:13:09.811Z,21.100
2023-02-15T10:14:07.489Z,22.000
2023-02-15T10:15:07.200Z,21.700
2023-02-15T10:16:06.973Z,21.400
2023-02-15T10:17:07.830Z,20.500
2023-02-15T10:19:07.181Z,20.600
2023-02-15T10:20:07.901Z,20.100
2023-02-15T10:21:07.741Z,19.900
2023-02-15T10:22:07.400Z,19.700
2023-02-15T10:23:07.112Z,19.200
2023-02-15T10:24:07.809Z,18.800
2023-02-15T10:25:12.336Z,19.200
2023-02-15T10:26:07.027Z,19.100
2023-02-15T10:27:07.649Z,19.500
2023-02-15T10:28:07.524Z,18.900
2023-02-15T10:29:07.176Z,19.500
2023-02-15T10:30:07.907Z,19.000
2023-02-15T10:31:08.158Z,19.900
2023-02-15T10:32:07.428Z,20.000
2023-02-15T10:33:07.183Z,19.500
2023-02-15T10:34:07.028Z,18.500
2023-02-15T10:35:07.872Z,18.400
2023-02-15T10:36:10.032Z,19.500
2023-02-15T10:37:07.761Z,19.600
2023-02-15T10:38:07.513Z,19.400
2023-02-15T10:39:07.211Z,19.200
2023-02-15T10:40:07.014Z,17.500
2023-02-15T10:41:07.804Z,18.100
2023-02-15T10:42:07.553Z,18.700
2023-02-15T10:43:07.213Z,18.600
2023-02-15T10:44:07.933Z,18.400
2023-02-15T10:45:07.737Z,17.700
2023-02-15T10:46:07.583Z,19.000
2023-02-15T10:47:07.446Z,19.300
2023-02-15T10:48:07.265Z,18.100
2023-02-15T10:49:06.942Z,17.900
2023-02-15T10:50:07.653Z,17.200
2023-02-15T10:51:07.416Z,17.500
2023-02-15T10:52:07.062Z,16.900
2023-02-15T10:53:07.755Z,18.000
2023-02-15T10:54:07.624Z,17.800
2023-02-15T10:55:07.368Z,17.100
2023-02-15T10:56:06.985Z,16.600
2023-02-15T10:57:08.247Z,16.000
2023-02-15T10:58:06.967Z,16.000
2023-02-15T10:59:07.586Z,17.300
2023-02-15T11:00:07.359Z,17.100
2023-02-15T11:01:07.796Z,15.800
2023-02-15T11:02:07.776Z,16.800
2023-02-15T11:03:07.652Z,15.300
2023-02-15T11:04:07.287Z,16.000
2023-02-15T11:05:07.281Z,17.200
2023-02-15T11:06:07.159Z,16.400
2023-02-15T11:07:07.773Z,16.300
2023-02-15T11:08:07.466Z,16.100
2023-02-15T11:09:07.112Z,16.600
2023-02-15T11:10:07.789Z,16.200
2023-02-15T11:11:07.544Z,16.400
2023-02-15T11:12:07.576Z,16.700
2023-02-15T11:13:07.241Z,15.600
2023-02-15T11:14:07.056Z,15.700
2023-02-15T11:15:07.845Z,15.100
2023-02-15T11:16:07.664Z,15.700
2023-02-15T11:17:07.439Z,15.700
2023-02-15T11:18:07.069Z,15.900
2023-02-15T11:19:07.717Z,16.600
2023-02-15T11:20:07.330Z,16.200
2023-02-15T11:21:07.964Z,16.700
2023-02-15T11:22:07.654Z,16.100
2023-02-15T11:24:06.996Z,15.600
2023-02-15T11:25:07.723Z,15.900
2023-02-15T11:26:07.373Z,14.800
2023-02-15T11:27:07.020Z,16.100
2023-02-15T11:28:07.010Z,16.400
2023-02-15T11:29:07.617Z,15.200
2023-02-15T11:30:07.527Z,14.300
2023-02-15T11:31:07.875Z,15.200
2023-02-15T11:32:07.971Z,14.900
2023-02-15T11:33:07.205Z,15.200
2023-02-15T11:34:06.960Z,15.200
2023-02-15T11:35:07.728Z,15.900
2023-02-15T11:36:07.477Z,15.000
2023-02-15T11:37:07.161Z,15.800
2023-02-15T11:38:07.924Z,16.000
2023-02-15T11:39:07.616Z,15.800
2023-02-15T11:40:07.461Z,16.000
2023-02-15T11:41:07.097Z,15.400
2023-02-15T11:42:07.821Z,15.500
2023-02-15T11:43:07.575Z,15.200
2023-02-15T11:44:07.365Z,15.400
2023-02-15T11:45:07.041Z,16.100
2023-02-15T11:46:07.762Z,16.300
2023-02-15T11:47:07.494Z,15.900
2023-02-15T11:48:07.176Z,15.600
2023-02-15T11:49:06.865Z,15.900
2023-02-15T11:50:07.500Z,17.000
2023-02-15T11:51:07.239Z,15.100
2023-02-15T11:52:06.953Z,15.900
2023-02-15T11:53:07.816Z,15.800
2023-02-15T11:54:07.451Z,15.100
2023-02-15T11:55:07.172Z,16.400
2023-02-15T11:56:07.828Z,18.200
2023-02-15T11:57:07.519Z,17.700
2023-02-15T11:58:07.135Z,17.300
2023-02-15T11:59:07.751Z,16.400
2023-02-15T12:00:07.504Z,16.900
2023-02-15T12:01:07.218Z,17.400
2023-02-15T12:02:06.877Z,16.700
2023-02-15T12:03:07.779Z,16.800
2023-02-15T12:05:07.491Z,17.200
2023-02-15T12:06:07.877Z,18.000
2023-02-15T12:07:07.542Z,17.700
2023-02-15T12:08:07.208Z,18.200
2023-02-15T12:09:07.838Z,17.800
2023-02-15T12:10:07.606Z,18.000
2023-02-15T12:11:07.457Z,18.300
2023-02-15T12:12:07.097Z,18.200
2023-02-15T12:13:07.770Z,19.500
2023-02-15T12:14:07.447Z,18.800
2023-02-15T12:15:07.189Z,18.600
2023-02-15T12:16:07.127Z,18.300
2023-02-15T12:17:07.046Z,18.900
2023-02-15T12:18:07.696Z,18.000
2023-02-15T12:19:07.412Z,17.800
2023-02-15T12:20:07.095Z,17.700
2023-02-15T12:21:07.799Z,16.800
2023-02-15T12:22:09.482Z,18.300
2023-02-15T12:24:07.660Z,18.100
2023-02-15T12:25:07.360Z,18.100
2023-02-15T12:26:07.008Z,17.800
2023-02-15T12:27:07.620Z,18.900
2023-02-15T12:28:07.320Z,19.400
2023-02-15T12:29:06.989Z,18.100
2023-02-15T12:30:07.805Z,18.900
2023-02-15T12:31:07.849Z,17.300
2023-02-15T12:32:08.101Z,18.600
2023-02-15T12:33:06.915Z,19.200
2023-02-15T12:34:07.542Z,19.100
2023-02-15T12:35:07.353Z,17.800
2023-02-15T12:36:07.102Z,17.900
2023-02-15T12:37:07.805Z,18.300
2023-02-15T12:39:12.215Z,17.600
2023-02-15T12:40:06.993Z,18.000
2023-02-15T12:41:07.649Z,17.800